Time;durP1;ratioP1;P1;durP2;ratioP2;P2;SDS_P1;SDS_P2;PMS_P1;PMS_P2;Temp;Humidity;BMP_temperature;BMP_pressure;BME280_temperature;BME280_humidity;BME280_pressure;Samples;Min_cycle;Max_cycle;Signal;HPM_P1;HPM_P2
2023/12/24 00:03:40;;;;;;;;;;;18.10;69.10;;;;;;10276922;28;93491;-45
2023/12/24 00:08:42;;;;;;;;;;;18.00;69.40;;;;;;10282425;28;93084;-41
2023/12/24 00:13:44;;;;;;;;;;;18.00;69.20;;;;;;10278125;28;93545;-41
2023/12/24 00:18:46;;;;;;;;;;;18.00;69.00;;;;;;10280541;28;94421;-47
2023/12/24 00:23:49;;;;;;;;;;;18.00;68.60;;;;;;10273009;28;95943;-43
2023/12/24 00:28:51;;;;;;;;;;;17.90;68.00;;;;;;10262635;28;94030;-42
2023/12/24 00:33:53;;;;;;;;;;;17.90;68.00;;;;;;10255844;28;93458;-43
2023/12/24 00:38:55;;;;;;;;;;;17.90;68.60;;;;;;10269018;28;94465;-42
2023/12/24 00:43:56;;;;;;;;;;;17.90;67.30;;;;;;10252842;28;94574;-44
2023/12/24 00:48:59;;;;;;;;;;;17.90;67.10;;;;;;10280590;28;93501;-43
2023/12/24 00:54:01;;;;;;;;;;;17.90;67.20;;;;;;10285551;28;94693;-43
2023/12/24 00:59:03;;;;;;;;;;;17.90;67.80;;;;;;10282086;28;93372;-45
2023/12/24 01:04:05;;;;;;;;;;;17.90;68.00;;;;;;10256776;28;93511;-44
2023/12/24 01:09:08;;;;;;;;;;;17.90;67.60;;;;;;10275299;28;94057;-41
2023/12/24 01:14:10;;;;;;;;;;;17.90;67.30;;;;;;10270306;28;95816;-41
2023/12/24 01:19:12;;;;;;;;;;;17.90;67.00;;;;;;10274100;28;94811;-42
2023/12/24 01:24:15;;;;;;;;;;;17.90;66.50;;;;;;10254126;28;93554;-42
2023/12/24 01:29:16;;;;;;;;;;;17.90;66.30;;;;;;10277776;28;93191;-41
2023/12/24 01:34:18;;;;;;;;;;;17.90;66.90;;;;;;10280311;28;93583;-41
2023/12/24 01:39:20;;;;;;;;;;;17.90;65.80;;;;;;10280741;28;93479;-59
2023/12/24 01:44:22;;;;;;;;;;;17.90;65.50;;;;;;10268354;28;94448;-45
2023/12/24 01:49:24;;;;;;;;;;;17.90;65.90;;;;;;10289225;28;93241;-43
2023/12/24 01:54:26;;;;;;;;;;;17.90;66.40;;;;;;10273124;28;94807;-46
2023/12/24 01:59:29;;;;;;;;;;;17.80;66.50;;;;;;10273998;28;94427;-46
2023/12/24 02:04:32;;;;;;;;;;;17.80;66.30;;;;;;10697766;22;96649;-63
2023/12/24 02:09:34;;;;;;;;;;;17.80;65.90;;;;;;10288681;28;93368;-64
2023/12/24 02:14:35;;;;;;;;;;;17.80;65.60;;;;;;10324536;28;93684;-63
2023/12/24 02:19:37;;;;;;;;;;;17.80;65.40;;;;;;10324509;28;93385;-63
2023/12/24 02:24:40;;;;;;;;;;;17.80;65.20;;;;;;10335018;28;95509;-63
2023/12/24 02:29:42;;;;;;;;;;;17.80;64.90;;;;;;10326193;28;95500;-65
2023/12/24 02:34:45;;;;;;;;;;;17.80;64.70;;;;;;10311960;28;94400;-63
2023/12/24 02:39:47;;;;;;;;;;;17.70;64.50;;;;;;10333649;28;92641;-64
2023/12/24 02:44:49;;;;;;;;;;;17.70;64.90;;;;;;10327425;28;94443;-63
2023/12/24 02:49:51;;;;;;;;;;;17.70;65.50;;;;;;10319954;28;94477;-66
2023/12/24 02:54:54;;;;;;;;;;;17.70;65.50;;;;;;10321107;28;96332;-63
2023/12/24 02:59:56;;;;;;;;;;;17.70;65.20;;;;;;10322889;28;92788;-63
2023/12/24 03:04:57;;;;;;;;;;;17.60;65.00;;;;;;10331410;28;94321;-63
2023/12/24 03:10:00;;;;;;;;;;;17.60;64.70;;;;;;10327679;28;93573;-63
2023/12/24 03:15:01;;;;;;;;;;;17.60;64.40;;;;;;10330915;28;93367;-63
2023/12/24 03:20:03;;;;;;;;;;;17.60;64.30;;;;;;10338361;28;93976;-63
2023/12/24 03:25:05;;;;;;;;;;;17.60;64.00;;;;;;10315067;28;94373;-64
2023/12/24 03:30:07;;;;;;;;;;;17.60;63.80;;;;;;10306030;28;93902;-63
2023/12/24 03:35:09;;;;;;;;;;;17.60;63.60;;;;;;10327959;28;93488;-63
2023/12/24 03:40:11;;;;;;;;;;;17.60;64.40;;;;;;10327246;28;94829;-63
2023/12/24 03:45:13;;;;;;;;;;;17.50;64.90;;;;;;10306891;28;97303;-63
2023/12/24 03:50:15;;;;;;;;;;;17.50;64.80;;;;;;10307039;28;94657;-63
2023/12/24 03:55:18;;;;;;;;;;;17.50;64.60;;;;;;10332958;28;93502;-63
2023/12/24 04:00:20;;;;;;;;;;;17.50;64.40;;;;;;10333968;28;93676;-64
2023/12/24 04:05:22;;;;;;;;;;;17.50;64.20;;;;;;10324154;28;94898;-64
2023/12/24 04:10:24;;;;;;;;;;;17.50;63.90;;;;;;10322739;28;94610;-62
2023/12/24 04:15:26;;;;;;;;;;;17.50;63.80;;;;;;10306756;28;94706;-63
2023/12/24 04:20:28;;;;;;;;;;;17.50;63.60;;;;;;10327817;28;92618;-63
2023/12/24 04:25:30;;;;;;;;;;;17.40;63.20;;;;;;10307573;28;93426;-64
2023/12/24 04:30:31;;;;;;;;;;;17.50;63.20;;;;;;10326378;28;94920;-63
2023/12/24 04:35:33;;;;;;;;;;;17.40;63.80;;;;;;10313856;28;97267;-63
2023/12/24 04:40:35;;;;;;;;;;;17.40;64.50;;;;;;10324726;28;94446;-63
2023/12/24 04:45:37;;;;;;;;;;;17.40;64.80;;;;;;10324556;28;93523;-63
2023/12/24 04:50:38;;;;;;;;;;;17.40;65.10;;;;;;10324704;28;93921;-64
2023/12/24 04:55:40;;;;;;;;;;;17.30;65.20;;;;;;10324742;28;94739;-64
2023/12/24 05:00:42;;;;;;;;;;;17.30;65.50;;;;;;10323020;28;94580;-62
2023/12/24 05:05:44;;;;;;;;;;;17.30;65.70;;;;;;10324215;28;93468;-62
2023/12/24 05:10:46;;;;;;;;;;;17.30;65.90;;;;;;10325425;28;94060;-62
2023/12/24 05:15:48;;;;;;;;;;;17.30;66.00;;;;;;10329597;28;93764;-63
2023/12/24 05:20:50;;;;;;;;;;;17.30;66.10;;;;;;10321714;28;94759;-64
2023/12/24 05:25:52;;;;;;;;;;;17.30;66.30;;;;;;10321496;28;96475;-64
2023/12/24 05:30:54;;;;;;;;;;;17.30;66.30;;;;;;10320765;28;93501;-63
2023/12/24 05:35:56;;;;;;;;;;;17.30;66.40;;;;;;10319964;28;94058;-63
2023/12/24 05:40:57;;;;;;;;;;;17.30;66.50;;;;;;10299655;28;93457;-64
2023/12/24 05:45:59;;;;;;;;;;;17.30;66.80;;;;;;10324530;28;94848;-63
2023/12/24 05:51:01;;;;;;;;;;;17.30;67.00;;;;;;10328168;28;94403;-64
2023/12/24 05:56:06;;;;;;;;;;;17.30;67.00;;;;;;10315622;28;95711;-63
2023/12/24 06:01:08;;;;;;;;;;;17.30;67.10;;;;;;10316797;28;93200;-64
2023/12/24 06:06:10;;;;;;;;;;;17.30;67.20;;;;;;10320016;28;93431;-63
2023/12/24 06:11:18;;;;;;;;;;;17.30;67.30;;;;;;10305429;28;93654;-64
2023/12/24 06:16:20;;;;;;;;;;;17.20;67.30;;;;;;10313288;28;96609;-63
2023/12/24 06:21:21;;;;;;;;;;;17.20;67.40;;;;;;10317402;28;93823;-63
2023/12/24 06:26:23;;;;;;;;;;;17.20;67.60;;;;;;10306338;28;92656;-64
2023/12/24 06:31:25;;;;;;;;;;;17.20;67.60;;;;;;10320102;28;93945;-64
2023/12/24 06:36:27;;;;;;;;;;;17.20;68.60;;;;;;10326057;28;96115;-64
2023/12/24 06:41:29;;;;;;;;;;;17.20;67.60;;;;;;10335898;28;94789;-63
2023/12/24 06:46:30;;;;;;;;;;;17.20;67.60;;;;;;10328945;28;93463;-63
2023/12/24 06:51:32;;;;;;;;;;;17.20;67.80;;;;;;10336508;28;93760;-64
2023/12/24 06:56:34;;;;;;;;;;;17.20;67.90;;;;;;10326406;28;94080;-63
2023/12/24 07:01:36;;;;;;;;;;;17.20;68.00;;;;;;10327929;28;95939;-63
2023/12/24 07:06:38;;;;;;;;;;;17.10;67.90;;;;;;10321705;28;97950;-63
2023/12/24 07:11:40;;;;;;;;;;;17.10;68.00;;;;;;10308667;28;94810;-63
2023/12/24 07:16:41;;;;;;;;;;;17.10;68.10;;;;;;10326529;28;94922;-63
2023/12/24 07:21:44;;;;;;;;;;;17.10;68.30;;;;;;10285428;28;93519;-63
2023/12/24 07:26:46;;;;;;;;;;;17.20;68.30;;;;;;10322697;28;94528;-63
2023/12/24 07:31:48;;;;;;;;;;;17.20;68.40;;;;;;10335142;28;94442;-63
2023/12/24 07:36:50;;;;;;;;;;;17.20;68.40;;;;;;10328743;28;93490;-63
2023/12/24 07:41:55;;;;;;;;;;;17.20;68.40;;;;;;10329535;28;92746;-63
2023/12/24 07:46:57;;;;;;;;;;;17.20;68.40;;;;;;10322055;28;94688;-64
2023/12/24 07:51:58;;;;;;;;;;;17.20;68.40;;;;;;10326600;28;93800;-64
2023/12/24 07:57:00;;;;;;;;;;;17.20;69.60;;;;;;10321446;28;96201;-64
2023/12/24 08:02:02;;;;;;;;;;;17.20;69.70;;;;;;10311248;28;95353;-65
2023/12/24 08:07:04;;;;;;;;;;;17.30;69.90;;;;;;10323011;28;94754;-65
2023/12/24 08:12:06;;;;;;;;;;;17.30;69.90;;;;;;10323846;28;94143;-64
2023/12/24 08:17:10;;;;;;;;;;;17.30;70.00;;;;;;10325274;28;115659;-64
2023/12/24 08:22:12;;;;;;;;;;;17.30;70.20;;;;;;10327855;28;93510;-64
2023/12/24 08:27:14;;;;;;;;;;;17.40;70.00;;;;;;10302024;28;94736;-65
2023/12/24 08:32:15;;;;;;;;;;;17.50;70.10;;;;;;10326343;28;92670;-64
2023/12/24 08:37:18;;;;;;;;;;;17.60;70.20;;;;;;10322452;28;94051;-64
2023/12/24 08:42:19;;;;;;;;;;;17.80;69.90;;;;;;10322714;28;93843;-65
2023/12/24 08:47:21;;;;;;;;;;;17.80;69.90;;;;;;10322260;28;95773;-64
2023/12/24 08:52:23;;;;;;;;;;;17.90;70.00;;;;;;10299783;28;92980;-65
2023/12/24 08:57:25;;;;;;;;;;;17.90;70.00;;;;;;10324243;28;94172;-64
2023/12/24 09:02:27;;;;;;;;;;;17.90;69.90;;;;;;10324140;28;94178;-64
2023/12/24 09:07:29;;;;;;;;;;;17.80;70.00;;;;;;10326354;28;94534;-64
2023/12/24 09:12:31;;;;;;;;;;;17.80;70.20;;;;;;10325723;28;94374;-64
2023/12/24 09:17:33;;;;;;;;;;;17.80;70.20;;;;;;10318862;28;93513;-64
2023/12/24 09:22:34;;;;;;;;;;;17.80;70.30;;;;;;10326350;28;92658;-64
2023/12/24 09:27:36;;;;;;;;;;;17.80;70.30;;;;;;10308279;28;93473;-65
2023/12/24 09:32:38;;;;;;;;;;;17.70;70.30;;;;;;10324869;28;94088;-65
2023/12/24 09:37:40;;;;;;;;;;;17.70;70.40;;;;;;10322264;28;95769;-64
2023/12/24 09:42:42;;;;;;;;;;;17.70;70.40;;;;;;10306699;28;93409;-64
2023/12/24 09:47:44;;;;;;;;;;;17.70;70.50;;;;;;10325783;28;93755;-64
2023/12/24 09:52:46;;;;;;;;;;;17.70;70.60;;;;;;10326175;28;95304;-64
2023/12/24 09:57:48;;;;;;;;;;;17.70;70.90;;;;;;10323549;28;97293;-64
2023/12/24 10:02:50;;;;;;;;;;;17.70;71.70;;;;;;10327159;28;93903;-64
2023/12/24 10:07:52;;;;;;;;;;;17.70;71.60;;;;;;10334304;28;95025;-63
2023/12/24 10:13:05;;;;;;;;;;;17.70;71.70;;;;;;10323234;28;94069;-64
2023/12/24 10:18:19;;;;;;;;;;;17.60;71.60;;;;;;10326681;28;93898;-64
2023/12/24 10:23:22;;;;;;;;;;;17.60;71.60;;;;;;10321277;28;94355;-64
2023/12/24 10:28:23;;;;;;;;;;;17.60;71.70;;;;;;10329391;28;96888;-64
2023/12/24 10:33:25;;;;;;;;;;;17.60;71.70;;;;;;10331677;28;94426;-65
2023/12/24 10:38:27;;;;;;;;;;;17.60;71.60;;;;;;10324525;28;93352;-65
2023/12/24 10:43:29;;;;;;;;;;;17.60;71.80;;;;;;10329293;28;94758;-65
2023/12/24 10:48:31;;;;;;;;;;;17.50;71.70;;;;;;10319722;28;93542;-65
2023/12/24 10:53:39;;;;;;;;;;;17.60;71.50;;;;;;10323717;28;94616;-65
2023/12/24 10:58:47;;;;;;;;;;;17.60;71.50;;;;;;10329158;28;94168;-65
2023/12/24 11:03:50;;;;;;;;;;;17.60;71.30;;;;;;10303374;28;92737;-66
2023/12/24 11:08:52;;;;;;;;;;;17.60;71.20;;;;;;10328566;28;94436;-65
2023/12/24 11:13:55;;;;;;;;;;;17.60;71.10;;;;;;10303922;28;94280;-65
2023/12/24 11:18:57;;;;;;;;;;;17.60;70.90;;;;;;10302326;28;95825;-65
2023/12/24 11:24:19;;;;;;;;;;;17.60;70.80;;;;;;10325983;28;94183;-65
2023/12/24 11:29:47;;;;;;;;;;;17.60;71.00;;;;;;10315451;28;93493;-65
2023/12/24 11:34:51;;;;;;;;;;;17.70;71.50;;;;;;10299329;28;94239;-66
2023/12/24 11:40:04;;;;;;;;;;;17.70;71.40;;;;;;10327386;28;93444;-66
2023/12/24 11:45:07;;;;;;;;;;;17.70;71.30;;;;;;10325235;28;94134;-65
2023/12/24 11:50:10;;;;;;;;;;;17.70;71.20;;;;;;10310420;28;93662;-65
2023/12/24 11:55:15;;;;;;;;;;;17.70;71.20;;;;;;10327041;28;93017;-66
2023/12/24 12:00:24;;;;;;;;;;;17.70;71.30;;;;;;10326566;28;93530;-66
2023/12/24 12:05:26;;;;;;;;;;;17.70;71.40;;;;;;10327970;28;94732;-65
2023/12/24 12:10:28;;;;;;;;;;;17.70;71.70;;;;;;10286638;28;96220;-66
2023/12/24 12:15:29;;;;;;;;;;;17.70;71.40;;;;;;10327853;28;94427;-62
2023/12/24 12:20:32;;;;;;;;;;;17.70;71.40;;;;;;10326713;28;93486;-65
2023/12/24 12:25:34;;;;;;;;;;;17.70;71.40;;;;;;10303476;28;94072;-66
2023/12/24 12:30:35;;;;;;;;;;;17.70;71.60;;;;;;10312431;28;93443;-65
2023/12/24 12:35:37;;;;;;;;;;;17.70;71.90;;;;;;10329511;28;94767;-66
2023/12/24 12:40:39;;;;;;;;;;;17.70;71.90;;;;;;10329180;28;93509;-64
2023/12/24 12:45:49;;;;;;;;;;;17.70;71.90;;;;;;10319569;28;93769;-65
2023/12/24 12:50:53;;;;;;;;;;;17.70;71.80;;;;;;10316478;28;94646;-65
2023/12/24 12:56:00;;;;;;;;;;;17.70;72.20;;;;;;10311019;28;93987;-65
2023/12/24 13:01:01;;;;;;;;;;;17.80;74.30;;;;;;10320137;28;96185;-64
2023/12/24 13:06:10;;;;;;;;;;;17.90;73.70;;;;;;10319394;28;94213;-66
2023/12/24 13:11:12;;;;;;;;;;;18.00;72.80;;;;;;10311836;28;93417;-66
2023/12/24 13:16:14;;;;;;;;;;;18.00;72.50;;;;;;10330363;28;94592;-67
2023/12/24 13:21:16;;;;;;;;;;;18.10;72.50;;;;;;10324079;28;93830;-67
2023/12/24 13:26:24;;;;;;;;;;;18.10;72.50;;;;;;10325062;28;93377;-65
2023/12/24 13:31:26;;;;;;;;;;;18.00;72.70;;;;;;10322001;28;93615;-64
2023/12/24 13:36:28;;;;;;;;;;;18.00;72.90;;;;;;10321977;28;94112;-65
2023/12/24 13:41:30;;;;;;;;;;;18.00;72.70;;;;;;10302689;28;93507;-66
2023/12/24 13:46:36;;;;;;;;;;;18.00;72.60;;;;;;10324960;28;93969;-67
2023/12/24 13:51:38;;;;;;;;;;;18.00;72.50;;;;;;10322447;28;96436;-66
2023/12/24 13:56:41;;;;;;;;;;;17.90;72.40;;;;;;10327570;28;93459;-67
2023/12/24 14:01:43;;;;;;;;;;;17.90;72.40;;;;;;10320679;28;94292;-66
2023/12/24 14:06:44;;;;;;;;;;;17.90;72.40;;;;;;10320398;28;93431;-66
2023/12/24 14:11:46;;;;;;;;;;;17.80;72.30;;;;;;10327214;28;94192;-68
2023/12/24 14:16:48;;;;;;;;;;;17.80;72.40;;;;;;10325768;28;94155;-65
2023/12/24 14:21:50;;;;;;;;;;;17.80;72.20;;;;;;10325130;28;94758;-66
2023/12/24 14:26:52;;;;;;;;;;;17.80;72.20;;;;;;10325889;28;93785;-67
2023/12/24 14:31:54;;;;;;;;;;;17.70;72.10;;;;;;10325148;28;95462;-65
2023/12/24 14:36:56;;;;;;;;;;;17.70;72.00;;;;;;10325995;28;94410;-64
2023/12/24 14:41:57;;;;;;;;;;;17.80;71.90;;;;;;10322746;28;96796;-66
2023/12/24 14:46:59;;;;;;;;;;;17.80;71.70;;;;;;10324471;28;94504;-66
2023/12/24 14:52:06;;;;;;;;;;;17.80;71.60;;;;;;10323155;28;93147;-66
2023/12/24 14:57:08;;;;;;;;;;;17.80;71.50;;;;;;10331195;28;94775;-66
2023/12/24 15:02:10;;;;;;;;;;;17.70;71.50;;;;;;10331312;28;94444;-66
2023/12/24 15:07:12;;;;;;;;;;;17.80;71.60;;;;;;10330820;28;92587;-66
2023/12/24 15:12:15;;;;;;;;;;;17.80;71.40;;;;;;10312247;28;94405;-67
2023/12/24 15:17:16;;;;;;;;;;;17.80;71.20;;;;;;10331388;28;92738;-66
2023/12/24 15:22:19;;;;;;;;;;;17.80;71.10;;;;;;10330130;28;94572;-65
2023/12/24 15:27:20;;;;;;;;;;;17.80;71.10;;;;;;10330116;28;94409;-66
2023/12/24 15:32:22;;;;;;;;;;;17.80;71.10;;;;;;10330511;28;95863;-65
2023/12/24 15:37:24;;;;;;;;;;;17.90;71.10;;;;;;10330224;28;93204;-65
2023/12/24 15:42:29;;;;;;;;;;;17.80;70.90;;;;;;10329659;28;94390;-65
2023/12/24 15:47:31;;;;;;;;;;;17.90;70.90;;;;;;10317667;28;94369;-66
2023/12/24 15:52:35;;;;;;;;;;;18.00;70.80;;;;;;10329475;28;94865;-66
2023/12/24 15:57:37;;;;;;;;;;;18.10;70.60;;;;;;10329245;28;94096;-66
2023/12/24 16:02:41;;;;;;;;;;;18.20;70.20;;;;;;10329511;28;94306;-66
2023/12/24 16:07:43;;;;;;;;;;;18.40;70.00;;;;;;10329766;28;92700;-65
2023/12/24 16:12:45;;;;;;;;;;;18.40;69.70;;;;;;10330830;28;94780;-65
2023/12/24 16:17:46;;;;;;;;;;;18.50;69.40;;;;;;10328933;28;94353;-67
2023/12/24 16:22:49;;;;;;;;;;;18.50;69.30;;;;;;10326902;28;96991;-65
2023/12/24 16:27:51;;;;;;;;;;;18.50;69.20;;;;;;10321935;28;94536;-65
2023/12/24 16:32:53;;;;;;;;;;;18.40;69.20;;;;;;10327618;28;93334;-65
2023/12/24 16:37:55;;;;;;;;;;;18.40;69.30;;;;;;10325182;28;94497;-65
2023/12/24 16:42:57;;;;;;;;;;;18.40;69.30;;;;;;10307101;28;93005;-65
2023/12/24 16:48:00;;;;;;;;;;;18.40;69.20;;;;;;10327941;28;94793;-66
2023/12/24 16:53:02;;;;;;;;;;;18.40;69.30;;;;;;10327816;28;94166;-66
2023/12/24 16:58:04;;;;;;;;;;;18.30;69.40;;;;;;10327365;28;92865;-65
2023/12/24 17:03:06;;;;;;;;;;;18.30;69.40;;;;;;10326468;28;94134;-66
2023/12/24 17:08:09;;;;;;;;;;;18.40;69.50;;;;;;10323447;28;93467;-66
2023/12/24 17:13:10;;;;;;;;;;;18.40;69.30;;;;;;10314336;28;96850;-65
2023/12/24 17:18:12;;;;;;;;;;;18.40;69.10;;;;;;10324134;28;94488;-65
2023/12/24 17:23:14;;;;;;;;;;;18.40;69.10;;;;;;10306056;28;94641;-66
2023/12/24 17:28:16;;;;;;;;;;;18.40;69.20;;;;;;10305929;28;93083;-66
2023/12/24 17:33:18;;;;;;;;;;;18.40;69.10;;;;;;10322709;28;94085;-67
2023/12/24 17:38:20;;;;;;;;;;;18.40;69.00;;;;;;10304789;28;95756;-65
2023/12/24 17:43:24;;;;;;;;;;;18.40;68.90;;;;;;10309928;28;93078;-65
2023/12/24 17:48:26;;;;;;;;;;;18.40;68.90;;;;;;10320301;28;93675;-64
2023/12/24 17:53:28;;;;;;;;;;;18.40;71.30;;;;;;10305703;28;95097;-64
2023/12/24 17:58:30;;;;;;;;;;;18.50;72.80;;;;;;10305514;28;93474;-66
2023/12/24 18:03:32;;;;;;;;;;;18.70;73.50;;;;;;10251239;28;1969812;-65
2023/12/24 18:08:34;;;;;;;;;;;19.00;73.80;;;;;;10318935;28;93482;-66
2023/12/24 18:13:36;;;;;;;;;;;19.10;73.50;;;;;;10301071;28;95000;-62
2023/12/24 18:18:37;;;;;;;;;;;19.30;73.20;;;;;;10318126;28;93414;-65
2023/12/24 18:23:39;;;;;;;;;;;19.30;72.40;;;;;;10327368;28;93958;-64
2023/12/24 18:28:41;;;;;;;;;;;19.30;72.30;;;;;;10321937;28;93470;-64
2023/12/24 18:33:43;;;;;;;;;;;19.30;72.10;;;;;;10328148;28;93921;-64
2023/12/24 18:38:46;;;;;;;;;;;19.20;72.00;;;;;;10321364;28;94032;-64
2023/12/24 18:43:53;;;;;;;;;;;19.20;72.10;;;;;;10305966;28;93506;-64
2023/12/24 18:48:55;;;;;;;;;;;19.10;72.00;;;;;;10308274;28;93356;-64
2023/12/24 18:53:57;;;;;;;;;;;19.10;72.00;;;;;;10322679;28;96596;-63
2023/12/24 18:58:59;;;;;;;;;;;19.00;71.90;;;;;;10327833;28;93262;-64
2023/12/24 19:04:01;;;;;;;;;;;19.00;72.20;;;;;;10322250;28;94249;-63
2023/12/24 19:09:03;;;;;;;;;;;18.90;72.30;;;;;;10332714;28;94426;-64
2023/12/24 19:14:05;;;;;;;;;;;18.90;72.30;;;;;;10327518;28;94191;-64
2023/12/24 19:19:06;;;;;;;;;;;18.80;72.50;;;;;;10332941;28;93766;-64
2023/12/24 19:24:09;;;;;;;;;;;18.80;72.50;;;;;;10306201;28;93755;-63
2023/12/24 19:29:11;;;;;;;;;;;18.70;72.50;;;;;;10307891;28;92611;-64
2023/12/24 19:34:14;;;;;;;;;;;18.70;72.50;;;;;;10306103;28;93379;-63
2023/12/24 19:39:16;;;;;;;;;;;18.60;72.40;;;;;;10330294;28;93438;-64
2023/12/24 19:44:18;;;;;;;;;;;18.60;72.50;;;;;;10326866;28;95786;-63
2023/12/24 19:49:20;;;;;;;;;;;18.60;72.50;;;;;;10325845;28;93589;-63
2023/12/24 19:54:22;;;;;;;;;;;18.60;72.60;;;;;;10322625;28;93571;-64
2023/12/24 19:59:24;;;;;;;;;;;18.50;72.40;;;;;;10325343;28;92833;-63
2023/12/24 20:04:25;;;;;;;;;;;18.50;72.50;;;;;;10321097;28;93847;-63
2023/12/24 20:09:27;;;;;;;;;;;18.60;73.10;;;;;;10323873;28;94364;-64
2023/12/24 20:14:31;;;;;;;;;;;18.60;74.00;;;;;;10306230;28;94516;-65
2023/12/24 20:19:34;;;;;;;;;;;18.60;74.80;;;;;;10317313;28;94242;-62
2023/12/24 20:24:37;;;;;;;;;;;18.70;74.20;;;;;;10322371;28;93470;-63
2023/12/24 20:29:39;;;;;;;;;;;18.60;73.60;;;;;;10314959;28;93908;-64
2023/12/24 20:34:41;;;;;;;;;;;18.70;73.60;;;;;;10313591;28;99874;-64
2023/12/24 20:39:43;;;;;;;;;;;18.70;73.50;;;;;;10309584;28;94188;-63
2023/12/24 20:44:44;;;;;;;;;;;18.70;73.40;;;;;;10300213;28;94454;-63
2023/12/24 20:49:46;;;;;;;;;;;18.70;73.30;;;;;;10317827;28;94803;-64
2023/12/24 20:54:50;;;;;;;;;;;18.70;73.30;;;;;;10320854;28;94127;-63
2023/12/24 20:59:52;;;;;;;;;;;18.60;73.10;;;;;;10323487;28;93978;-70
2023/12/24 21:04:55;;;;;;;;;;;18.60;74.70;;;;;;10322529;28;94552;-64
2023/12/24 21:09:57;;;;;;;;;;;18.60;73.90;;;;;;10326672;28;92502;-64
2023/12/24 21:14:58;;;;;;;;;;;18.50;73.80;;;;;;10325315;28;93641;-65
2023/12/24 21:20:00;;;;;;;;;;;18.50;73.90;;;;;;10309030;28;93434;-69
2023/12/24 21:25:02;;;;;;;;;;;18.50;74.00;;;;;;10303119;28;97227;-65
2023/12/24 21:30:04;;;;;;;;;;;18.40;73.90;;;;;;10326510;28;93930;-65
2023/12/24 21:35:06;;;;;;;;;;;18.40;74.00;;;;;;10326012;28;95795;-65
2023/12/24 21:40:09;;;;;;;;;;;18.40;73.90;;;;;;10324855;28;93480;-65
2023/12/24 21:45:11;;;;;;;;;;;18.40;73.90;;;;;;10326189;28;94971;-65
2023/12/24 21:50:13;;;;;;;;;;;18.40;73.70;;;;;;10324966;28;93437;-64
2023/12/24 21:55:15;;;;;;;;;;;18.40;73.80;;;;;;10325139;28;94416;-64
2023/12/24 22:00:16;;;;;;;;;;;18.30;73.80;;;;;;10326433;28;93997;-64
2023/12/24 22:05:18;;;;;;;;;;;18.30;73.80;;;;;;10326975;28;94667;-64
2023/12/24 22:10:20;;;;;;;;;;;18.30;73.80;;;;;;10332831;28;93750;-64
2023/12/24 22:15:22;;;;;;;;;;;18.30;73.80;;;;;;10313145;28;97195;-64
2023/12/24 22:20:25;;;;;;;;;;;18.20;73.80;;;;;;10332708;28;94407;-64
2023/12/24 22:25:27;;;;;;;;;;;18.20;73.70;;;;;;10333614;28;93907;-63
2023/12/24 22:30:29;;;;;;;;;;;18.20;73.70;;;;;;10314168;28;93734;-64
2023/12/24 22:35:31;;;;;;;;;;;18.20;73.70;;;;;;10331960;28;94633;-64
2023/12/24 22:40:33;;;;;;;;;;;18.20;73.80;;;;;;10324789;28;93003;-64
2023/12/24 22:45:35;;;;;;;;;;;18.20;73.80;;;;;;10309621;28;94427;-64
2023/12/24 22:50:37;;;;;;;;;;;18.10;73.80;;;;;;10332223;28;92643;-64
2023/12/24 22:55:38;;;;;;;;;;;18.10;73.80;;;;;;10330194;28;94017;-64
2023/12/24 23:00:40;;;;;;;;;;;18.10;73.80;;;;;;10319704;28;94435;-64
2023/12/24 23:05:42;;;;;;;;;;;18.00;74.00;;;;;;10304868;28;96654;-64
2023/12/24 23:10:44;;;;;;;;;;;18.00;74.00;;;;;;10321539;28;94537;-64
2023/12/24 23:15:46;;;;;;;;;;;18.00;73.70;;;;;;10332920;28;94440;-64
2023/12/24 23:20:48;;;;;;;;;;;18.00;73.10;;;;;;10327395;28;94463;-64
2023/12/24 23:25:50;;;;;;;;;;;18.00;72.60;;;;;;10326248;28;93430;-64
2023/12/24 23:30:51;;;;;;;;;;;18.00;72.00;;;;;;10329384;28;93058;-64
2023/12/24 23:35:53;;;;;;;;;;;18.00;71.60;;;;;;10327960;28;94103;-64
2023/12/24 23:41:12;;;;;;;;;;;18.00;71.00;;;;;;10321401;28;91975;-64
2023/12/24 23:46:15;;;;;;;;;;;18.00;70.70;;;;;;10327099;28;94412;-64
2023/12/24 23:51:17;;;;;;;;;;;18.00;70.30;;;;;;10329256;28;93415;-64
2023/12/24 23:56:19;;;;;;;;;;;18.00;70.00;;;;;;10326055;28;95826;-64
